sensor_id;sensor_type;location;lat;lon;timestamp;pressure;altitude;pressure_sealevel;temperature
76541;BMP280;65385;55.772;37.658;2023-04-15T00:00:16;100955.91;;;1.02
76541;BMP280;65385;55.772;37.658;2023-04-15T00:01:19;100950.13;;;1.00
76541;BMP280;65385;55.772;37.658;2023-04-15T00:02:20;100947.88;;;0.97
76541;BMP280;65385;55.772;37.658;2023-04-15T00:03:20;100963.16;;;0.99
76541;BMP280;65385;55.772;37.658;2023-04-15T00:04:21;100959.13;;;0.96
76541;BMP280;65385;55.772;37.658;2023-04-15T00:05:22;100959.13;;;0.96
76541;BMP280;65385;55.772;37.658;2023-04-15T00:06:22;100952.84;;;0.91
76541;BMP280;65385;55.772;37.658;2023-04-15T00:07:23;100982.63;;;0.93
76541;BMP280;65385;55.772;37.658;2023-04-15T00:08:24;100963.97;;;0.91
76541;BMP280;65385;55.772;37.658;2023-04-15T00:09:24;100962.50;;;0.89
76541;BMP280;65385;55.772;37.658;2023-04-15T00:10:26;100975.88;;;0.92
76541;BMP280;65385;55.772;37.658;2023-04-15T00:11:27;100968.44;;;0.89
76541;BMP280;65385;55.772;37.658;2023-04-15T00:12:28;100974.06;;;0.85
76541;BMP280;65385;55.772;37.658;2023-04-15T00:13:28;100977.78;;;0.90
76541;BMP280;65385;55.772;37.658;2023-04-15T00:14:29;100974.09;;;0.93
76541;BMP280;65385;55.772;37.658;2023-04-15T00:15:30;100981.31;;;0.89
76541;BMP280;65385;55.772;37.658;2023-04-15T00:16:30;100973.78;;;0.88
76541;BMP280;65385;55.772;37.658;2023-04-15T00:17:31;100969.75;;;0.85
76541;BMP280;65385;55.772;37.658;2023-04-15T00:18:32;100978.41;;;0.84
76541;BMP280;65385;55.772;37.658;2023-04-15T00:19:32;100971.34;;;0.86
76541;BMP280;65385;55.772;37.658;2023-04-15T00:20:34;100990.34;;;0.85
76541;BMP280;65385;55.772;37.658;2023-04-15T00:21:34;100979.38;;;0.83
76541;BMP280;65385;55.772;37.658;2023-04-15T00:22:35;100982.09;;;0.82
76541;BMP280;65385;55.772;37.658;2023-04-15T00:23:36;100973.56;;;0.81
76541;BMP280;65385;55.772;37.658;2023-04-15T00:24:37;100978.09;;;0.79
76541;BMP280;65385;55.772;37.658;2023-04-15T00:25:38;100991.25;;;0.76
76541;BMP280;65385;55.772;37.658;2023-04-15T00:26:39;100981.13;;;0.74
76541;BMP280;65385;55.772;37.658;2023-04-15T00:27:39;100982.59;;;0.77
76541;BMP280;65385;55.772;37.658;2023-04-15T00:28:40;100997.69;;;0.72
76541;BMP280;65385;55.772;37.658;2023-04-15T00:29:41;100988.03;;;0.74
76541;BMP280;65385;55.772;37.658;2023-04-15T00:30:43;100987.06;;;0.75
76541;BMP280;65385;55.772;37.658;2023-04-15T00:31:43;100983.88;;;0.73
76541;BMP280;65385;55.772;37.658;2023-04-15T00:32:44;100991.78;;;0.79
76541;BMP280;65385;55.772;37.658;2023-04-15T00:33:46;101004.47;;;0.81
76541;BMP280;65385;55.772;37.658;2023-04-15T00:34:46;100998.19;;;0.75
76541;BMP280;65385;55.772;37.658;2023-04-15T00:35:47;100993.19;;;0.74
76541;BMP280;65385;55.772;37.658;2023-04-15T00:36:48;100987.06;;;0.75
76541;BMP280;65385;55.772;37.658;2023-04-15T00:37:48;100980.78;;;0.69
76541;BMP280;65385;55.772;37.658;2023-04-15T00:38:49;100999.09;;;0.66
76541;BMP280;65385;55.772;37.658;2023-04-15T00:39:49;100991.19;;;0.60
76541;BMP280;65385;55.772;37.658;2023-04-15T00:40:50;100997.16;;;0.60
76541;BMP280;65385;55.772;37.658;2023-04-15T00:41:51;100985.91;;;0.61
76541;BMP280;65385;55.772;37.658;2023-04-15T00:42:52;100993.63;;;0.61
76541;BMP280;65385;55.772;37.658;2023-04-15T00:43:53;101011.78;;;0.60
76541;BMP280;65385;55.772;37.658;2023-04-15T00:44:54;101011.31;;;0.56
76541;BMP280;65385;55.772;37.658;2023-04-15T00:45:57;101002.44;;;0.51
76541;BMP280;65385;55.772;37.658;2023-04-15T00:46:59;101006.25;;;0.47
76541;BMP280;65385;55.772;37.658;2023-04-15T00:48:01;100996.31;;;0.44
76541;BMP280;65385;55.772;37.658;2023-04-15T00:49:03;101013.50;;;0.43
76541;BMP280;65385;55.772;37.658;2023-04-15T00:50:04;101000.44;;;0.36
76541;BMP280;65385;55.772;37.658;2023-04-15T00:51:05;101008.50;;;0.42
76541;BMP280;65385;55.772;37.658;2023-04-15T00:52:06;101016.22;;;0.42
76541;BMP280;65385;55.772;37.658;2023-04-15T00:53:08;101012.03;;;0.40
76541;BMP280;65385;55.772;37.658;2023-04-15T00:54:09;101007.84;;;0.39
76541;BMP280;65385;55.772;37.658;2023-04-15T00:55:09;101015.06;;;0.36
76541;BMP280;65385;55.772;37.658;2023-04-15T00:56:12;101015.56;;;0.39
76541;BMP280;65385;55.772;37.658;2023-04-15T00:57:13;101016.88;;;0.44
76541;BMP280;65385;55.772;37.658;2023-04-15T00:58:14;101020.41;;;0.43
76541;BMP280;65385;55.772;37.658;2023-04-15T00:59:16;101018.13;;;0.39
76541;BMP280;65385;55.772;37.658;2023-04-15T01:00:17;101023.75;;;0.35
76541;BMP280;65385;55.772;37.658;2023-04-15T01:01:20;101019.69;;;0.32
76541;BMP280;65385;55.772;37.658;2023-04-15T01:02:22;101023.25;;;0.31
76541;BMP280;65385;55.772;37.658;2023-04-15T01:03:23;101024.84;;;0.32
76541;BMP280;65385;55.772;37.658;2023-04-15T01:04:24;101022.28;;;0.32
76541;BMP280;65385;55.772;37.658;2023-04-15T01:05:25;101019.69;;;0.32
76541;BMP280;65385;55.772;37.658;2023-04-15T01:06:26;101021.00;;;0.28
76541;BMP280;65385;55.772;37.658;2023-04-15T01:07:27;101033.06;;;0.28
76541;BMP280;65385;55.772;37.658;2023-04-15T01:08:28;101029.00;;;0.25
76541;BMP280;65385;55.772;37.658;2023-04-15T01:09:28;101032.84;;;0.21
76541;BMP280;65385;55.772;37.658;2023-04-15T01:10:30;101022.06;;;0.18
76541;BMP280;65385;55.772;37.658;2023-04-15T01:11:31;101026.72;;;0.22
76541;BMP280;65385;55.772;37.658;2023-04-15T01:12:34;101032.84;;;0.21
76541;BMP280;65385;55.772;37.658;2023-04-15T01:13:37;101031.88;;;0.22
76541;BMP280;65385;55.772;37.658;2023-04-15T01:14:37;101027.53;;;0.23
76541;BMP280;65385;55.772;37.658;2023-04-15T01:15:38;101038.00;;;0.21
76541;BMP280;65385;55.772;37.658;2023-04-15T01:16:39;101038.81;;;0.22
76541;BMP280;65385;55.772;37.658;2023-04-15T01:17:40;101029.75;;;0.18
76541;BMP280;65385;55.772;37.658;2023-04-15T01:18:41;101035.56;;;0.20
76541;BMP280;65385;55.772;37.658;2023-04-15T01:19:41;101035.06;;;0.16
76541;BMP280;65385;55.772;37.658;2023-04-15T01:20:42;101040.19;;;0.16
76541;BMP280;65385;55.772;37.658;2023-04-15T01:21:44;101044.03;;;0.12
76541;BMP280;65385;55.772;37.658;2023-04-15T01:22:44;101033.41;;;0.07
76541;BMP280;65385;55.772;37.658;2023-04-15T01:23:46;101043.19;;;0.04
76541;BMP280;65385;55.772;37.658;2023-04-15T01:25:01;101041.41;;;0.04
76541;BMP280;65385;55.772;37.658;2023-04-15T01:26:07;101046.56;;;0.04
76541;BMP280;65385;55.772;37.658;2023-04-15T01:27:10;101036.56;;;0.01
76541;BMP280;65385;55.772;37.658;2023-04-15T01:28:11;101043.31;;;0.02
76541;BMP280;65385;55.772;37.658;2023-04-15T01:29:11;101034.16;;;-0.01
76541;BMP280;65385;55.772;37.658;2023-04-15T01:30:12;101045.25;;;0.00
76541;BMP280;65385;55.772;37.658;2023-04-15T01:31:14;101044.28;;;0.01
76541;BMP280;65385;55.772;37.658;2023-04-15T01:32:14;101039.78;;;0.03
76541;BMP280;65385;55.772;37.658;2023-04-15T01:33:34;101053.75;;;0.00
76541;BMP280;65385;55.772;37.658;2023-04-15T01:34:54;101069.03;;;0.02
76541;BMP280;65385;55.772;37.658;2023-04-15T01:36:16;101056.63;;;-0.03
76541;BMP280;65385;55.772;37.658;2023-04-15T01:37:16;101050.00;;;-0.05
76541;BMP280;65385;55.772;37.658;2023-04-15T01:38:17;101052.91;;;-0.08
76541;BMP280;65385;55.772;37.658;2023-04-15T01:39:18;101048.03;;;-0.11
76541;BMP280;65385;55.772;37.658;2023-04-15T01:40:19;101054.81;;;-0.10
76541;BMP280;65385;55.772;37.658;2023-04-15T01:41:24;101046.56;;;-0.14
76541;BMP280;65385;55.772;37.658;2023-04-15T01:42:26;101047.03;;;-0.18
76541;BMP280;65385;55.772;37.658;2023-04-15T01:43:28;101058.03;;;-0.08
76541;BMP280;65385;55.772;37.658;2023-04-15T01:44:30;101063.19;;;-0.08
76541;BMP280;65385;55.772;37.658;2023-04-15T01:45:32;101054.13;;;-0.12
76541;BMP280;65385;55.772;37.658;2023-04-15T01:46:35;101056.72;;;-0.12
76541;BMP280;65385;55.772;37.658;2023-04-15T01:47:37;101050.91;;;-0.14
76541;BMP280;65385;55.772;37.658;2023-04-15T01:48:39;101049.59;;;-0.18
76541;BMP280;65385;55.772;37.658;2023-04-15T01:49:41;101061.63;;;-0.19
76541;BMP280;65385;55.772;37.658;2023-04-15T01:50:43;101061.84;;;-0.12
76541;BMP280;65385;55.772;37.658;2023-04-15T01:51:45;101058.59;;;-0.14
76541;BMP280;65385;55.772;37.658;2023-04-15T01:52:47;101062.38;;;-0.09
76541;BMP280;65385;55.772;37.658;2023-04-15T01:53:49;101059.41;;;-0.14
76541;BMP280;65385;55.772;37.658;2023-04-15T01:54:51;101061.34;;;-0.16
76541;BMP280;65385;55.772;37.658;2023-04-15T01:55:53;101062.59;;;-0.20
76541;BMP280;65385;55.772;37.658;2023-04-15T01:56:55;101065.28;;;-0.21
76541;BMP280;65385;55.772;37.658;2023-04-15T01:57:57;101074.63;;;-0.20
76541;BMP280;65385;55.772;37.658;2023-04-15T01:58:59;101071.41;;;-0.22
76541;BMP280;65385;55.772;37.658;2023-04-15T02:00:02;101057.75;;;-0.23
76541;BMP280;65385;55.772;37.658;2023-04-15T02:01:14;101057.38;;;-0.28
76541;BMP280;65385;55.772;37.658;2023-04-15T02:02:17;101075.53;;;-0.29
76541;BMP280;65385;55.772;37.658;2023-04-15T02:03:19;101073.91;;;-0.30
76541;BMP280;65385;55.772;37.658;2023-04-15T02:04:20;101074.88;;;-0.31
76541;BMP280;65385;55.772;37.658;2023-04-15T02:05:22;101069.97;;;-0.34
76541;BMP280;65385;55.772;37.658;2023-04-15T02:06:24;101068.78;;;-0.30
76541;BMP280;65385;55.772;37.658;2023-04-15T02:07:26;101081.31;;;-0.27
76541;BMP280;65385;55.772;37.658;2023-04-15T02:08:29;101073.31;;;-0.24
76541;BMP280;65385;55.772;37.658;2023-04-15T02:09:31;101079.13;;;-0.22
76541;BMP280;65385;55.772;37.658;2023-04-15T02:10:33;101082.47;;;-0.22
76541;BMP280;65385;55.772;37.658;2023-04-15T02:11:35;101074.41;;;-0.27
76541;BMP280;65385;55.772;37.658;2023-04-15T02:12:39;101077.94;;;-0.28
76541;BMP280;65385;55.772;37.658;2023-04-15T02:13:41;101079.69;;;-0.28
76541;BMP280;65385;55.772;37.658;2023-04-15T02:14:43;101086.06;;;-0.32
76541;BMP280;65385;55.772;37.658;2023-04-15T02:15:48;101091.47;;;-0.35
76541;BMP280;65385;55.772;37.658;2023-04-15T02:16:52;101083.63;;;-0.34
76541;BMP280;65385;55.772;37.658;2023-04-15T02:17:54;101099.88;;;-0.33
76541;BMP280;65385;55.772;37.658;2023-04-15T02:18:56;101092.16;;;-0.33
76541;BMP280;65385;55.772;37.658;2023-04-15T02:19:58;101082.81;;;-0.34
76541;BMP280;65385;55.772;37.658;2023-04-15T02:21:00;101088.53;;;-0.31
76541;BMP280;65385;55.772;37.658;2023-04-15T02:22:02;101091.91;;;-0.30
76541;BMP280;65385;55.772;37.658;2023-04-15T02:23:04;101097.69;;;-0.28
76541;BMP280;65385;55.772;37.658;2023-04-15T02:24:07;101090.78;;;-0.28
76541;BMP280;65385;55.772;37.658;2023-04-15T02:25:09;101083.88;;;-0.27
76541;BMP280;65385;55.772;37.658;2023-04-15T02:26:12;101094.97;;;-0.27
76541;BMP280;65385;55.772;37.658;2023-04-15T02:27:15;101096.59;;;-0.26
76541;BMP280;65385;55.772;37.658;2023-04-15T02:28:17;101104.16;;;-0.24
76541;BMP280;65385;55.772;37.658;2023-04-15T02:29:20;101103.34;;;-0.25
76541;BMP280;65385;55.772;37.658;2023-04-15T02:30:23;101096.44;;;-0.24
76541;BMP280;65385;55.772;37.658;2023-04-15T02:31:26;101093.06;;;-0.25
76541;BMP280;65385;55.772;37.658;2023-04-15T02:32:28;101101.44;;;-0.23
76541;BMP280;65385;55.772;37.658;2023-04-15T02:33:30;101103.84;;;-0.21
76541;BMP280;65385;55.772;37.658;2023-04-15T02:34:35;101100.41;;;-0.12
76541;BMP280;65385;55.772;37.658;2023-04-15T02:35:38;101116.44;;;-0.01
76541;BMP280;65385;55.772;37.658;2023-04-15T02:36:43;101108.81;;;0.16
76541;BMP280;65385;55.772;37.658;2023-04-15T02:37:44;101117.16;;;0.35
76541;BMP280;65385;55.772;37.658;2023-04-15T02:38:47;101109.72;;;0.50
76541;BMP280;65385;55.772;37.658;2023-04-15T02:39:50;101108.97;;;0.66
76541;BMP280;65385;55.772;37.658;2023-04-15T02:40:52;101107.91;;;0.76
76541;BMP280;65385;55.772;37.658;2023-04-15T02:41:54;101107.97;;;0.85
76541;BMP280;65385;55.772;37.658;2023-04-15T02:43:00;101117.50;;;0.92
76541;BMP280;65385;55.772;37.658;2023-04-15T02:44:03;101108.50;;;0.96
76541;BMP280;65385;55.772;37.658;2023-04-15T02:45:06;101122.16;;;0.97
76541;BMP280;65385;55.772;37.658;2023-04-15T02:46:09;101122.69;;;1.00
76541;BMP280;65385;55.772;37.658;2023-04-15T02:47:15;101120.44;;;1.05
76541;BMP280;65385;55.772;37.658;2023-04-15T02:48:17;101122.88;;;1.07
76541;BMP280;65385;55.772;37.658;2023-04-15T02:49:20;101134.66;;;1.09
76541;BMP280;65385;55.772;37.658;2023-04-15T02:50:23;101118.53;;;1.07
76541;BMP280;65385;55.772;37.658;2023-04-15T02:51:29;101138.19;;;1.08
76541;BMP280;65385;55.772;37.658;2023-04-15T02:52:31;101139.63;;;1.11
76541;BMP280;65385;55.772;37.658;2023-04-15T02:53:33;101144.59;;;1.04
76541;BMP280;65385;55.772;37.658;2023-04-15T02:54:35;101135.09;;;1.05
76541;BMP280;65385;55.772;37.658;2023-04-15T02:55:37;101138.63;;;1.04
76541;BMP280;65385;55.772;37.658;2023-04-15T02:56:39;101140.75;;;1.08
76541;BMP280;65385;55.772;37.658;2023-04-15T02:57:41;101127.69;;;1.10
76541;BMP280;65385;55.772;37.658;2023-04-15T02:58:44;101148.81;;;1.13
76541;BMP280;65385;55.772;37.658;2023-04-15T02:59:46;101140.13;;;1.14
76541;BMP280;65385;55.772;37.658;2023-04-15T03:00:48;101135.94;;;1.13
76541;BMP280;65385;55.772;37.658;2023-04-15T03:01:52;101143.66;;;1.13
76541;BMP280;65385;55.772;37.658;2023-04-15T03:03:04;101141.56;;;1.09
76541;BMP280;65385;55.772;37.658;2023-04-15T03:04:06;101127.38;;;1.05
76541;BMP280;65385;55.772;37.658;2023-04-15T03:05:13;101151.88;;;1.09
76541;BMP280;65385;55.772;37.658;2023-04-15T03:06:19;101142.16;;;1.03
76541;BMP280;65385;55.772;37.658;2023-04-15T03:07:21;101143.44;;;0.99
76541;BMP280;65385;55.772;37.658;2023-04-15T03:08:23;101158.22;;;0.97
76541;BMP280;65385;55.772;37.658;2023-04-15T03:09:24;101151.94;;;0.91
76541;BMP280;65385;55.772;37.658;2023-04-15T03:10:27;101149.66;;;0.88
76541;BMP280;65385;55.772;37.658;2023-04-15T03:11:29;101152.22;;;0.88
76541;BMP280;65385;55.772;37.658;2023-04-15T03:12:32;101149.00;;;0.86
76541;BMP280;65385;55.772;37.658;2023-04-15T03:13:34;101142.38;;;0.84
76541;BMP280;65385;55.772;37.658;2023-04-15T03:14:44;101160.94;;;0.87
76541;BMP280;65385;55.772;37.658;2023-04-15T03:15:46;101157.84;;;0.84
76541;BMP280;65385;55.772;37.658;2023-04-15T03:16:48;101155.56;;;0.80
76541;BMP280;65385;55.772;37.658;2023-04-15T03:17:52;101158.13;;;0.80
76541;BMP280;65385;55.772;37.658;2023-04-15T03:18:54;101150.59;;;0.79
76541;BMP280;65385;55.772;37.658;2023-04-15T03:19:57;101151.22;;;0.81
76541;BMP280;65385;55.772;37.658;2023-04-15T03:20:59;101154.00;;;0.88
76541;BMP280;65385;55.772;37.658;2023-04-15T03:22:01;101151.44;;;0.88
76541;BMP280;65385;55.772;37.658;2023-04-15T03:23:03;101161.22;;;0.84
76541;BMP280;65385;55.772;37.658;2023-04-15T03:24:05;101166.50;;;0.83
76541;BMP280;65385;55.772;37.658;2023-04-15T03:25:07;101157.97;;;0.82
76541;BMP280;65385;55.772;37.658;2023-04-15T03:26:09;101154.44;;;0.83
76541;BMP280;65385;55.772;37.658;2023-04-15T03:27:11;101168.66;;;0.87
76541;BMP280;65385;55.772;37.658;2023-04-15T03:28:13;101161.28;;;0.92
76541;BMP280;65385;55.772;37.658;2023-04-15T03:29:15;101174.81;;;0.94
76541;BMP280;65385;55.772;37.658;2023-04-15T03:30:17;101158.84;;;0.91
76541;BMP280;65385;55.772;37.658;2023-04-15T03:31:19;101159.00;;;0.89
76541;BMP280;65385;55.772;37.658;2023-04-15T03:32:20;101160.31;;;0.93
76541;BMP280;65385;55.772;37.658;2023-04-15T03:33:22;101160.94;;;0.95
76541;BMP280;65385;55.772;37.658;2023-04-15T03:34:24;101161.75;;;0.96
76541;BMP280;65385;55.772;37.658;2023-04-15T03:35:26;101165.19;;;1.04
76541;BMP280;65385;55.772;37.658;2023-04-15T03:36:28;101170.03;;;1.07
76541;BMP280;65385;55.772;37.658;2023-04-15T03:37:32;101150.25;;;1.08
76541;BMP280;65385;55.772;37.658;2023-04-15T03:38:34;101167.00;;;1.12
76541;BMP280;65385;55.772;37.658;2023-04-15T03:39:36;101155.47;;;1.24
76541;BMP280;65385;55.772;37.658;2023-04-15T03:40:40;101174.97;;;1.27
76541;BMP280;65385;55.772;37.658;2023-04-15T03:41:42;101169.75;;;1.18
76541;BMP280;65385;55.772;37.658;2023-04-15T03:42:43;101169.81;;;1.27
76541;BMP280;65385;55.772;37.658;2023-04-15T03:43:45;101185.59;;;1.24
76541;BMP280;65385;55.772;37.658;2023-04-15T03:44:47;101178.81;;;1.23
76541;BMP280;65385;55.772;37.658;2023-04-15T03:45:49;101168.81;;;1.19
76541;BMP280;65385;55.772;37.658;2023-04-15T03:46:51;101171.72;;;1.25
76541;BMP280;65385;55.772;37.658;2023-04-15T03:47:53;101174.66;;;1.30
76541;BMP280;65385;55.772;37.658;2023-04-15T03:48:55;101178.34;;;1.35
76541;BMP280;65385;55.772;37.658;2023-04-15T03:49:56;101177.56;;;1.43
76541;BMP280;65385;55.772;37.658;2023-04-15T03:50:58;101191.50;;;1.58
76541;BMP280;65385;55.772;37.658;2023-04-15T03:52:00;101177.78;;;1.57
76541;BMP280;65385;55.772;37.658;2023-04-15T03:53:01;101175.50;;;1.54
76541;BMP280;65385;55.772;37.658;2023-04-15T03:54:03;101190.03;;;1.55
76541;BMP280;65385;55.772;37.658;2023-04-15T03:55:06;101188.91;;;1.58
76541;BMP280;65385;55.772;37.658;2023-04-15T03:56:08;101190.06;;;1.64
76541;BMP280;65385;55.772;37.658;2023-04-15T03:57:11;101191.53;;;1.66
76541;BMP280;65385;55.772;37.658;2023-04-15T03:58:12;101179.06;;;1.62
76541;BMP280;65385;55.772;37.658;2023-04-15T03:59:14;101181.84;;;1.68
76541;BMP280;65385;55.772;37.658;2023-04-15T04:00:16;101178.66;;;1.74
76541;BMP280;65385;55.772;37.658;2023-04-15T04:01:18;101187.03;;;1.84
76541;BMP280;65385;55.772;37.658;2023-04-15T04:02:20;101188.97;;;1.98
76541;BMP280;65385;55.772;37.658;2023-04-15T04:03:23;101189.97;;;2.14
76541;BMP280;65385;55.772;37.658;2023-04-15T04:04:25;101178.69;;;2.23
76541;BMP280;65385;55.772;37.658;2023-04-15T04:05:27;101184.47;;;2.33
76541;BMP280;65385;55.772;37.658;2023-04-15T04:06:28;101186.72;;;2.44
76541;BMP280;65385;55.772;37.658;2023-04-15T04:07:31;101180.91;;;2.50
76541;BMP280;65385;55.772;37.658;2023-04-15T04:08:33;101193.50;;;2.61
76541;BMP280;65385;55.772;37.658;2023-04-15T04:09:35;101182.00;;;2.64
76541;BMP280;65385;55.772;37.658;2023-04-15T04:10:39;101180.56;;;2.69
76541;BMP280;65385;55.772;37.658;2023-04-15T04:11:41;101175.84;;;2.73
76541;BMP280;65385;55.772;37.658;2023-04-15T04:12:43;101187.31;;;2.70
76541;BMP280;65385;55.772;37.658;2023-04-15T04:13:45;101182.00;;;2.72
76541;BMP280;65385;55.772;37.658;2023-04-15T04:14:46;101196.66;;;2.79
76541;BMP280;65385;55.772;37.658;2023-04-15T04:15:48;101190.84;;;2.86
76541;BMP280;65385;55.772;37.658;2023-04-15T04:16:50;101187.94;;;2.89
76541;BMP280;65385;55.772;37.658;2023-04-15T04:17:52;101196.31;;;2.99
76541;BMP280;65385;55.772;37.658;2023-04-15T04:18:53;101182.06;;;3.03
76541;BMP280;65385;55.772;37.658;2023-04-15T04:19:55;101188.84;;;3.04
76541;BMP280;65385;55.772;37.658;2023-04-15T04:20:57;101200.81;;;3.05
76541;BMP280;65385;55.772;37.658;2023-04-15T04:21:59;101190.78;;;3.02
76541;BMP280;65385;55.772;37.658;2023-04-15T04:23:01;101185.28;;;3.05
76541;BMP280;65385;55.772;37.658;2023-04-15T04:24:03;101201.41;;;3.15
76541;BMP280;65385;55.772;37.658;2023-04-15T04:25:06;101192.63;;;3.24
76541;BMP280;65385;55.772;37.658;2023-04-15T04:26:09;101190.66;;;3.34
76541;BMP280;65385;55.772;37.658;2023-04-15T04:27:11;101193.69;;;3.46
76541;BMP280;65385;55.772;37.658;2023-04-15T04:28:12;101204.13;;;3.52
76541;BMP280;65385;55.772;37.658;2023-04-15T04:29:14;101199.88;;;3.59
76541;BMP280;65385;55.772;37.658;2023-04-15T04:30:16;101202.16;;;3.62
76541;BMP280;65385;55.772;37.658;2023-04-15T04:31:18;101201.19;;;3.63
76541;BMP280;65385;55.772;37.658;2023-04-15T04:32:19;101201.31;;;3.70
76541;BMP280;65385;55.772;37.658;2023-04-15T04:33:22;101215.44;;;3.82
76541;BMP280;65385;55.772;37.658;2023-04-15T04:34:24;101217.53;;;3.87
76541;BMP280;65385;55.772;37.658;2023-04-15T04:35:25;101212.25;;;3.95
76541;BMP280;65385;55.772;37.658;2023-04-15T04:36:27;101215.16;;;4.00
76541;BMP280;65385;55.772;37.658;2023-04-15T04:37:29;101214.41;;;4.14
76541;BMP280;65385;55.772;37.658;2023-04-15T04:38:31;101208.19;;;4.23
76541;BMP280;65385;55.772;37.658;2023-04-15T04:39:33;101206.16;;;4.33
76541;BMP280;65385;55.772;37.658;2023-04-15T04:40:35;101197.59;;;4.47
76541;BMP280;65385;55.772;37.658;2023-04-15T04:41:37;101211.34;;;4.63
76541;BMP280;65385;55.772;37.658;2023-04-15T04:42:39;101217.69;;;4.75
76541;BMP280;65385;55.772;37.658;2023-04-15T04:43:41;101192.66;;;4.82
76541;BMP280;65385;55.772;37.658;2023-04-15T04:44:42;101201.19;;;4.90
76541;BMP280;65385;55.772;37.658;2023-04-15T04:45:44;101201.88;;;4.99
76541;BMP280;65385;55.772;37.658;2023-04-15T04:46:46;101213.66;;;5.16
76541;BMP280;65385;55.772;37.658;2023-04-15T04:47:48;101198.56;;;5.05
76541;BMP280;65385;55.772;37.658;2023-04-15T04:48:49;101199.75;;;5.03
76541;BMP280;65385;55.772;37.658;2023-04-15T04:49:51;101202.13;;;5.04
76541;BMP280;65385;55.772;37.658;2023-04-15T04:50:53;101204.00;;;5.10
76541;BMP280;65385;55.772;37.658;2023-04-15T04:51:55;101207.69;;;5.16
76541;BMP280;65385;55.772;37.658;2023-04-15T04:52:57;101206.78;;;5.23
76541;BMP280;65385;55.772;37.658;2023-04-15T04:53:59;101205.22;;;5.29
76541;BMP280;65385;55.772;37.658;2023-04-15T04:55:01;101203.69;;;5.34
76541;BMP280;65385;55.772;37.658;2023-04-15T04:56:03;101202.97;;;5.41
76541;BMP280;65385;55.772;37.658;2023-04-15T04:57:05;101220.69;;;5.37
76541;BMP280;65385;55.772;37.658;2023-04-15T04:58:08;101200.28;;;5.34
76541;BMP280;65385;55.772;37.658;2023-04-15T04:59:10;101211.81;;;5.46
76541;BMP280;65385;55.772;37.658;2023-04-15T05:00:12;101210.16;;;5.39
76541;BMP280;65385;55.772;37.658;2023-04-15T05:01:14;101212.34;;;5.42
76541;BMP280;65385;55.772;37.658;2023-04-15T05:02:16;101213.47;;;5.32
76541;BMP280;65385;55.772;37.658;2023-04-15T05:03:18;101211.00;;;5.24
76541;BMP280;65385;55.772;37.658;2023-04-15T05:04:19;101218.69;;;5.18
76541;BMP280;65385;55.772;37.658;2023-04-15T05:05:21;101216.69;;;5.20
76541;BMP280;65385;55.772;37.658;2023-04-15T05:06:23;101198.03;;;5.24
76541;BMP280;65385;55.772;37.658;2023-04-15T05:07:24;101202.88;;;5.34
76541;BMP280;65385;55.772;37.658;2023-04-15T05:08:26;101208.41;;;5.46
76541;BMP280;65385;55.772;37.658;2023-04-15T05:09:28;101210.31;;;5.58
76541;BMP280;65385;55.772;37.658;2023-04-15T05:10:32;101207.31;;;5.76
76541;BMP280;65385;55.772;37.658;2023-04-15T05:11:34;101218.06;;;5.94
76541;BMP280;65385;55.772;37.658;2023-04-15T05:12:36;101210.19;;;6.09
76541;BMP280;65385;55.772;37.658;2023-04-15T05:13:39;101206.28;;;6.19
76541;BMP280;65385;55.772;37.658;2023-04-15T05:14:41;101206.28;;;6.19
76541;BMP280;65385;55.772;37.658;2023-04-15T05:15:43;101208.75;;;6.28
76541;BMP280;65385;55.772;37.658;2023-04-15T05:16:45;101224.38;;;6.34
76541;BMP280;65385;55.772;37.658;2023-04-15T05:17:47;101230.22;;;6.43
76541;BMP280;65385;55.772;37.658;2023-04-15T05:18:49;101210.03;;;6.45
76541;BMP280;65385;55.772;37.658;2023-04-15T05:19:51;101213.06;;;6.48
76541;BMP280;65385;55.772;37.658;2023-04-15T05:20:54;101218.06;;;6.50
76541;BMP280;65385;55.772;37.658;2023-04-15T05:21:56;101235.91;;;6.53
76541;BMP280;65385;55.772;37.658;2023-04-15T05:22:57;101211.13;;;6.57
76541;BMP280;65385;55.772;37.658;2023-04-15T05:23:59;101220.31;;;6.59
76541;BMP280;65385;55.772;37.658;2023-04-15T05:25:01;101221.91;;;6.54
76541;BMP280;65385;55.772;37.658;2023-04-15T05:26:02;101218.69;;;6.52
76541;BMP280;65385;55.772;37.658;2023-04-15T05:27:04;101211.47;;;6.47
76541;BMP280;65385;55.772;37.658;2023-04-15T05:28:06;101215.84;;;6.40
76541;BMP280;65385;55.772;37.658;2023-04-15T05:29:08;101209.94;;;6.25
76541;BMP280;65385;55.772;37.658;2023-04-15T05:30:10;101226.25;;;6.19
76541;BMP280;65385;55.772;37.658;2023-04-15T05:31:12;101220.50;;;6.23
76541;BMP280;65385;55.772;37.658;2023-04-15T05:32:14;101219.94;;;6.07
76541;BMP280;65385;55.772;37.658;2023-04-15T05:33:16;101221.91;;;5.98
76541;BMP280;65385;55.772;37.658;2023-04-15T05:34:18;101221.47;;;5.95
76541;BMP280;65385;55.772;37.658;2023-04-15T05:35:20;101224.69;;;5.97
76541;BMP280;65385;55.772;37.658;2023-04-15T05:36:22;101233.53;;;5.81
76541;BMP280;65385;55.772;37.658;2023-04-15T05:37:23;101220.31;;;5.55
76541;BMP280;65385;55.772;37.658;2023-04-15T05:38:25;101223.72;;;5.41
76541;BMP280;65385;55.772;37.658;2023-04-15T05:39:27;101228.13;;;5.25
76541;BMP280;65385;55.772;37.658;2023-04-15T05:40:29;101228.91;;;5.26
76541;BMP280;65385;55.772;37.658;2023-04-15T05:41:31;101225.81;;;5.16
76541;BMP280;65385;55.772;37.658;2023-04-15T05:42:34;101221.53;;;4.93
76541;BMP280;65385;55.772;37.658;2023-04-15T05:43:36;101224.78;;;4.81
76541;BMP280;65385;55.772;37.658;2023-04-15T05:44:37;101225.28;;;4.76
76541;BMP280;65385;55.772;37.658;2023-04-15T05:45:39;101221.88;;;4.61
76541;BMP280;65385;55.772;37.658;2023-04-15T05:46:41;101229.16;;;4.66
76541;BMP280;65385;55.772;37.658;2023-04-15T05:47:43;101227.44;;;4.58
76541;BMP280;65385;55.772;37.658;2023-04-15T05:48:44;101229.38;;;4.56
76541;BMP280;65385;55.772;37.658;2023-04-15T05:49:46;101227.44;;;4.58
76541;BMP280;65385;55.772;37.658;2023-04-15T05:50:48;101235.59;;;4.70
76541;BMP280;65385;55.772;37.658;2023-04-15T05:51:50;101233.63;;;4.72